Flinter Rose — PBUB — position and weather

sailwx.info

Track history (hours):
 
Tides and Currents Weather Stations Pressure Air Temp Water Temp Dewpoint Dewpoint Depression Visibility Wind Speed Wind Dir Waves Ship Positions

Flinter Rose

Last reported at 2014-Dec-14 02:33 UTC. Time now 2014-Dec-21 10:42 UTC.
Position N 59°59' E 026°44'.

Length 101 m; draft 4.2 m.

Type: Cargo ship. MMSI: 246227000.

Date/timePositionNaut miles runAvg speedWind from/ knotsBaromVisibWave heightAir tempDewpointWater temp
2014-Dec-14 02:33N 59°59' E 026°44'1411.3
2014-Dec-14 01:21N 59°56' E 026°17'5411.3
2014-Dec-13 20:33N 59°44' E 024°32'2411.4
2014-Dec-13 18:29N 59°37' E 023°48'1111.5
2014-Dec-13 17:33N 59°33' E 023°28'  
2014-Dec-09 07:33N 57°16' E 017°40'1310.6
2014-Dec-09 06:22N 57°04' E 017°31'116 9.6
2014-Dec-08 18:22N 55°36' E 015°17'810.2
2014-Dec-08 17:34N 55°32' E 015°05'1010.4
2014-Dec-08 16:33N 55°27' E 014°49'1010.3
2014-Dec-08 15:34N 55°20' E 014°34'1010.0
2014-Dec-08 14:34N 55°12' E 014°24'1010.1
2014-Dec-08 13:34N 55°04' E 014°13'10 9.7
2014-Dec-08 12:33N 54°59' E 013°59'1010.3
2014-Dec-08 11:33N 54°56' E 013°42'5310.5
2014-Dec-08 06:31N 54°32' E 012°20'1010.6
2014-Dec-08 05:33N 54°24' E 012°09'1111.1
2014-Dec-08 04:33N 54°24' E 011°50'4411.0
2014-Dec-08 00:33N 54°33' E 010°35'1010.4
2014-Dec-07 23:34N 54°30' E 010°19'9 9.4
2014-Dec-07 22:34N 54°22' E 010°10'1 1.1
2014-Dec-07 21:33N 54°22' E 010°08'4 4.5
2014-Dec-07 20:34N 54°21' E 010°00'6 5.6
2014-Dec-07 19:33N 54°22' E 009°51'25 6.1
2014-Dec-07 15:21N 54°04' E 009°19'7 8.5
2014-Dec-07 14:33N 53°58' E 009°15'4 4.0
2014-Dec-07 13:32N 53°55' E 009°11'0 0.0
2014-Dec-07 12:32N 53°55' E 009°11'0 0.0
2014-Dec-07 11:32N 53°55' E 009°11'1 0.7
2014-Dec-07 10:33N 53°54' E 009°10'1 1.1
2014-Dec-07 09:34N 53°54' E 009°09'7 6.6
2014-Dec-07 08:33N 53°51' E 008°58'8 8.3
2014-Dec-07 07:34N 53°52' E 008°44'8 8.3
2014-Dec-07 06:33N 53°58' E 008°35'9 9.0
2014-Dec-07 05:33N 53°59' E 008°20'10 9.7
2014-Dec-07 04:33N 53°59' E 008°03'1010.2
2014-Dec-07 03:33N 53°56' E 007°46'1210.0
2014-Dec-07 02:21N 53°54' E 007°27'4310.1
2014-Dec-06 22:05N 53°43' E 006°15'610.9
2014-Dec-06 21:33N 53°41' E 006°06'1110.8
2014-Dec-06 20:33N 53°38' E 005°49'1111.1
2014-Dec-06 19:33N 53°34' E 005°31'1211.8
2014-Dec-06 18:33N 53°31' E 005°12'1212.2
2014-Dec-06 17:33N 53°26' E 004°53'1211.7
2014-Dec-06 16:33N 53°18' E 004°39'2812.0
2014-Dec-06 14:14N 52°54' E 004°17'711.0
2014-Dec-06 13:33N 52°47' E 004°11'1110.6
2014-Dec-06 12:33N 52°40' E 003°58'11 9.9
2014-Dec-06 11:26N 52°32' E 003°46'74 9.1
2014-Dec-06 03:18N 51°36' E 002°26'811.2
2014-Dec-06 02:33N 51°30' E 002°17'1111.0
2014-Dec-06 01:33N 51°20' E 002°08'1111.4
2014-Dec-06 00:33N 51°12' E 001°57'1312.7
2014-Dec-05 23:33N 51°03' E 001°42'273 7.7
2014-Dec-04 12:04N 50°38' W 005°29'510.5
2014-Dec-04 11:33N 50°41' W 005°23'9411.4
2014-Dec-04 03:21N 51°24' W 003°10'  
Track history (hours):
 
Tides and Currents Weather Stations Pressure Air Temp Water Temp Dewpoint Dewpoint Depression Visibility Wind Speed Wind Dir Waves Ship Positions

Flinter Rose

Last reported at 2014-Dec-14 02:33 UTC. Time now 2014-Dec-21 10:42 UTC.
Position N 59°59' E 026°44'.

Length 101 m; draft 4.2 m.

Type: Cargo ship. MMSI: 246227000.

Date/timePositionNaut miles runAvg speedWind from/ knotsBaromVisibWave heightAir tempDewpointWater temp
2014-Dec-14 02:33N 59°59' E 026°44'1411.3
2014-Dec-14 01:21N 59°56' E 026°17'5411.3
2014-Dec-13 20:33N 59°44' E 024°32'2411.4
2014-Dec-13 18:29N 59°37' E 023°48'1111.5
2014-Dec-13 17:33N 59°33' E 023°28'  
2014-Dec-09 07:33N 57°16' E 017°40'1310.6
2014-Dec-09 06:22N 57°04' E 017°31'116 9.6
2014-Dec-08 18:22N 55°36' E 015°17'810.2
2014-Dec-08 17:34N 55°32' E 015°05'1010.4
2014-Dec-08 16:33N 55°27' E 014°49'1010.3
2014-Dec-08 15:34N 55°20' E 014°34'1010.0
2014-Dec-08 14:34N 55°12' E 014°24'1010.1
2014-Dec-08 13:34N 55°04' E 014°13'10 9.7
2014-Dec-08 12:33N 54°59' E 013°59'1010.3
2014-Dec-08 11:33N 54°56' E 013°42'5310.5
2014-Dec-08 06:31N 54°32' E 012°20'1010.6
2014-Dec-08 05:33N 54°24' E 012°09'1111.1
2014-Dec-08 04:33N 54°24' E 011°50'4411.0
2014-Dec-08 00:33N 54°33' E 010°35'1010.4
2014-Dec-07 23:34N 54°30' E 010°19'9 9.4
2014-Dec-07 22:34N 54°22' E 010°10'1 1.1
2014-Dec-07 21:33N 54°22' E 010°08'4 4.5
2014-Dec-07 20:34N 54°21' E 010°00'6 5.6
2014-Dec-07 19:33N 54°22' E 009°51'25 6.1
2014-Dec-07 15:21N 54°04' E 009°19'7 8.5
2014-Dec-07 14:33N 53°58' E 009°15'4 4.0
2014-Dec-07 13:32N 53°55' E 009°11'0 0.0
2014-Dec-07 12:32N 53°55' E 009°11'0 0.0
2014-Dec-07 11:32N 53°55' E 009°11'1 0.7
2014-Dec-07 10:33N 53°54' E 009°10'1 1.1
2014-Dec-07 09:34N 53°54' E 009°09'7 6.6
2014-Dec-07 08:33N 53°51' E 008°58'8 8.3
2014-Dec-07 07:34N 53°52' E 008°44'8 8.3
2014-Dec-07 06:33N 53°58' E 008°35'9 9.0
2014-Dec-07 05:33N 53°59' E 008°20'10 9.7
2014-Dec-07 04:33N 53°59' E 008°03'1010.2
2014-Dec-07 03:33N 53°56' E 007°46'1210.0
2014-Dec-07 02:21N 53°54' E 007°27'4310.1
2014-Dec-06 22:05N 53°43' E 006°15'610.9
2014-Dec-06 21:33N 53°41' E 006°06'1110.8
2014-Dec-06 20:33N 53°38' E 005°49'1111.1
2014-Dec-06 19:33N 53°34' E 005°31'1211.8
2014-Dec-06 18:33N 53°31' E 005°12'1212.2
2014-Dec-06 17:33N 53°26' E 004°53'1211.7
2014-Dec-06 16:33N 53°18' E 004°39'2812.0
2014-Dec-06 14:14N 52°54' E 004°17'711.0
2014-Dec-06 13:33N 52°47' E 004°11'1110.6
2014-Dec-06 12:33N 52°40' E 003°58'11 9.9
2014-Dec-06 11:26N 52°32' E 003°46'74 9.1
2014-Dec-06 03:18N 51°36' E 002°26'811.2
2014-Dec-06 02:33N 51°30' E 002°17'1111.0
2014-Dec-06 01:33N 51°20' E 002°08'1111.4
2014-Dec-06 00:33N 51°12' E 001°57'1312.7
2014-Dec-05 23:33N 51°03' E 001°42'273 7.7
2014-Dec-04 12:04N 50°38' W 005°29'510.5
2014-Dec-04 11:33N 50°41' W 005°23'9411.4
2014-Dec-04 03:21N 51°24' W 003°10'  

Dump ship's entire track history